Time;durP1;ratioP1;P1;durP2;ratioP2;P2;SDS_P1;SDS_P2;PMS_P1;PMS_P2;Temp;Humidity;BMP_temperature;BMP_pressure;BME280_temperature;BME280_humidity;BME280_pressure;Samples;Min_cycle;Max_cycle;Signal;HPM_P1;HPM_P2
2022/05/31 00:01:08;;;;;;;7.82;4.40;;;8.30;99.90;;;-144.05;72.04;125687.94;4958372;28;20467;-88
2022/05/31 00:03:34;;;;;;;9.27;4.18;;;8.30;99.90;;;-144.05;72.04;125687.94;4958702;28;20046;-85
2022/05/31 00:06:00;;;;;;;5.75;4.00;;;8.30;99.90;;;-144.05;72.26;125687.94;4957723;28;20543;-83
2022/05/31 00:08:26;;;;;;;6.70;3.85;;;8.30;99.90;;;-144.05;72.35;125687.94;4974644;28;20071;-89
2022/05/31 00:10:52;;;;;;;5.28;4.30;;;8.30;99.90;;;-144.05;72.47;125687.94;4966228;28;20380;-87
2022/05/31 00:13:19;;;;;;;5.18;4.65;;;8.20;99.90;;;-144.05;73.29;125687.94;4979033;28;20072;-88
2022/05/31 00:15:45;;;;;;;8.32;4.68;;;8.30;99.90;;;-144.05;72.91;125687.94;4977369;28;20390;-85
2022/05/31 00:18:13;;;;;;;7.60;5.30;;;8.20;99.90;;;-144.05;73.00;125687.94;4978842;28;20106;-86
2022/05/31 00:20:39;;;;;;;9.20;4.78;;;8.30;99.90;;;-144.05;72.61;125687.94;4994181;28;20537;-86
2022/05/31 00:23:08;;;;;;;8.57;4.75;;;8.30;99.90;;;-144.05;72.44;125687.94;4977892;28;20077;-88
2022/05/31 00:25:33;;;;;;;7.93;4.47;;;8.30;99.90;;;-144.05;72.09;125687.94;4979753;28;20042;-88
2022/05/31 00:27:59;;;;;;;6.82;4.60;;;8.40;99.90;;;-144.05;72.16;125687.94;4986760;28;20019;-83
2022/05/31 00:30:25;;;;;;;7.75;4.70;;;8.40;99.90;;;-144.05;72.33;125687.94;4984784;28;20127;-87
2022/05/31 00:32:53;;;;;;;5.70;4.03;;;8.30;99.90;;;-144.05;72.56;125687.94;4994514;28;20472;-84
2022/05/31 00:35:28;;;;;;;8.07;4.18;;;8.30;99.90;;;-144.05;72.68;125687.94;4980473;28;20042;-86
2022/05/31 00:37:57;;;;;;;6.27;4.43;;;8.20;99.90;;;-144.05;72.58;125687.94;4992077;28;20551;-83
2022/05/31 00:40:28;;;;;;;7.32;4.75;;;8.20;99.90;;;-144.05;72.85;125687.94;4992073;28;20292;-88
2022/05/31 00:43:04;;;;;;;8.85;4.45;;;8.20;99.90;;;-144.05;73.18;125687.94;4992679;28;20031;-84
2022/05/31 00:45:47;;;;;;;7.45;4.53;;;8.10;99.90;;;-144.05;73.03;125687.94;4989261;28;20022;-88
2022/05/31 00:48:33;;;;;;;7.88;4.90;;;8.20;99.90;;;-144.05;73.25;125687.94;4981184;28;20073;-90
2022/05/31 00:51:06;;;;;;;;;;;8.20;99.90;;;-144.05;73.34;125687.94;4981092;28;20019;-87
2022/05/31 00:53:54;;;;;;;6.15;4.50;;;8.20;99.90;;;-144.05;73.24;125687.94;4996197;28;19941;-85
2022/05/31 00:56:27;;;;;;;5.85;4.88;;;8.30;99.90;;;-144.05;73.05;125687.94;4979488;28;20027;-83
2022/05/31 00:59:05;;;;;;;5.68;4.50;;;8.20;99.90;;;-144.05;73.31;125687.94;4994885;28;20474;-87
2022/05/31 01:01:39;;;;;;;5.70;4.05;;;8.20;99.90;;;-144.05;73.64;125687.94;4990762;28;20458;-88
2022/05/31 01:04:07;;;;;;;10.52;5.40;;;8.20;99.90;;;-144.05;73.94;125687.94;5008116;28;20027;-86
2022/05/31 01:06:34;;;;;;;8.57;5.10;;;8.20;99.90;;;-144.05;74.11;125687.94;4991854;28;20034;-86
2022/05/31 01:09:01;;;;;;;8.77;4.78;;;8.10;99.90;;;-144.05;74.07;125687.94;4992940;28;20082;-84
2022/05/31 01:11:38;;;;;;;8.23;5.30;;;8.20;99.90;;;-144.05;74.34;125687.94;4977768;28;20027;-91
2022/05/31 01:14:06;;;;;;;10.20;5.28;;;8.20;99.90;;;-144.05;73.97;125687.94;4970113;28;20031;-85
2022/05/31 01:16:33;;;;;;;10.77;5.22;;;8.30;99.90;;;-144.05;73.55;125687.94;4969149;28;20042;-85
2022/05/31 01:19:00;;;;;;;8.95;5.30;;;8.40;99.90;;;-144.05;73.54;125687.94;4965515;28;20538;-88
2022/05/31 01:21:26;;;;;;;8.50;5.22;;;8.40;99.90;;;-144.05;73.21;125687.94;4974302;28;20035;-87
2022/05/31 01:24:15;;;;;;;7.05;5.25;;;8.50;99.90;;;-144.05;72.71;125687.94;4976843;28;20449;-83
2022/05/31 01:27:20;;;;;;;9.38;5.05;;;8.50;99.90;;;-144.05;72.16;125687.94;4977377;28;20024;-79
2022/05/31 01:29:49;;;;;;;7.30;4.40;;;8.50;99.90;;;-144.05;71.94;125687.94;4974144;28;20035;-88
2022/05/31 01:32:15;;;;;;;6.25;4.72;;;8.50;99.90;;;-144.05;72.01;125687.94;4972421;28;20042;-86
2022/05/31 01:35:02;;;;;;;7.13;4.50;;;8.50;99.90;;;-144.05;72.28;125687.94;4970867;28;20028;-85
2022/05/31 01:38:12;;;;;;;7.63;4.68;;;8.30;99.90;;;-144.05;72.58;125687.94;4979195;28;20038;-89
2022/05/31 01:41:10;;;;;;;8.80;5.00;;;8.20;99.90;;;-144.05;73.27;125687.94;4961581;28;20027;-88
2022/05/31 01:43:37;;;;;;;7.43;4.63;;;8.20;99.90;;;-144.05;73.52;125687.94;4960233;28;20514;-88
2022/05/31 01:46:15;;;;;;;7.63;4.50;;;8.00;99.90;;;-144.05;73.68;125687.94;4958068;28;20027;-88
2022/05/31 01:48:43;;;;;;;6.72;4.35;;;7.80;99.90;;;-144.05;74.16;125687.94;4958797;28;20368;-84
2022/05/31 01:51:12;;;;;;;8.07;5.07;;;7.90;99.90;;;-144.05;74.46;125687.94;4957050;28;20027;-88
2022/05/31 01:53:40;;;;;;;5.93;4.00;;;7.80;99.90;;;-144.05;74.49;125687.94;4957192;28;20130;-87
2022/05/31 01:56:10;;;;;;;7.97;4.68;;;7.70;99.90;;;-144.05;74.68;125687.94;4957183;28;20055;-85
2022/05/31 01:58:44;;;;;;;6.70;5.38;;;7.60;99.90;;;-144.05;74.91;125687.94;4959001;28;20035;-88
2022/05/31 02:01:11;;;;;;;10.50;4.72;;;7.60;99.90;;;-144.05;74.88;125687.94;4956660;28;20095;-84
2022/05/31 02:03:42;;;;;;;10.73;5.30;;;7.70;99.90;;;-144.05;74.88;125687.94;4956266;28;20488;-88
2022/05/31 02:06:34;;;;;;;8.52;4.60;;;7.80;99.90;;;-144.05;74.45;125687.94;4972514;28;20578;-88
2022/05/31 02:09:04;;;;;;;9.07;4.90;;;7.80;99.90;;;-144.05;74.34;125687.94;4956547;28;20039;-85
2022/05/31 02:11:31;;;;;;;9.13;5.03;;;7.80;99.90;;;-144.05;74.38;125687.94;4970711;28;20041;-88
2022/05/31 02:13:58;;;;;;;6.00;4.07;;;7.90;99.90;;;-144.05;74.50;125687.94;4976239;28;20027;-88
2022/05/31 02:16:27;;;;;;;8.77;4.93;;;7.80;99.90;;;-144.05;74.51;125687.94;4977445;28;20023;-85
2022/05/31 02:21:38;;;;;;;7.82;4.80;;;7.90;99.90;;;-144.05;74.76;125687.94;4978916;28;20042;-87
2022/05/31 02:24:14;;;;;;;9.30;4.88;;;7.90;99.90;;;-144.05;74.93;125687.94;4977482;28;20563;-90
2022/05/31 02:26:44;;;;;;;6.88;4.20;;;8.00;99.90;;;-144.05;74.97;125687.94;4976526;28;20053;-91
2022/05/31 02:29:18;;;;;;;7.15;5.07;;;7.90;99.90;;;-144.05;74.99;125687.94;4975719;28;20505;-85
2022/05/31 02:31:46;;;;;;;10.40;4.72;;;7.90;99.90;;;-144.05;75.12;125687.94;4976856;28;20027;-89
2022/05/31 02:34:19;;;;;;;7.88;4.75;;;7.90;99.90;;;-144.05;74.75;125687.94;4987651;28;20057;-83
2022/05/31 02:36:46;;;;;;;7.95;4.78;;;8.00;99.90;;;-144.05;73.80;125687.94;4995584;28;20594;-80
2022/05/31 02:39:13;;;;;;;9.35;4.55;;;8.10;99.90;;;-144.05;73.35;125687.94;4976161;28;20034;-88
2022/05/31 02:41:39;;;;;;;8.68;4.80;;;8.30;99.90;;;-144.05;72.44;125687.94;4975604;28;20040;-88
2022/05/31 02:44:06;;;;;;;5.72;3.65;;;8.40;99.90;;;-144.05;71.29;125687.94;4975620;28;20106;-86
2022/05/31 02:46:33;;;;;;;8.00;4.57;;;8.50;99.90;;;-144.05;71.07;125687.94;4977743;28;20085;-86
2022/05/31 02:49:01;;;;;;;8.90;4.90;;;8.50;99.90;;;-144.05;71.17;125687.94;4976630;28;20050;-88
2022/05/31 02:51:27;;;;;;;9.68;5.32;;;8.60;99.90;;;-144.05;71.08;125687.94;4977900;28;20031;-84
2022/05/31 02:53:53;;;;;;;9.05;5.60;;;8.70;99.90;;;-144.05;71.23;125687.94;4976407;28;20046;-86
2022/05/31 02:56:20;;;;;;;9.55;5.80;;;8.70;99.90;;;-144.05;71.40;125687.94;4977704;28;20435;-85
2022/05/31 02:58:46;;;;;;;10.80;5.65;;;8.80;99.90;;;-144.05;71.28;125687.94;4977360;28;20031;-87
2022/05/31 03:01:33;;;;;;;9.55;5.07;;;8.80;99.90;;;-144.05;71.11;125687.94;4977544;28;20035;-86
2022/05/31 03:04:00;;;;;;;11.18;5.15;;;8.70;99.90;;;-144.05;71.62;125687.94;4975261;28;20027;-85
2022/05/31 03:06:26;;;;;;;9.32;5.93;;;8.80;99.90;;;-144.05;71.92;125687.94;4977515;28;20031;-88
2022/05/31 03:08:53;;;;;;;9.45;6.00;;;8.70;99.90;;;-144.05;72.14;125687.94;4975175;28;20027;-86
2022/05/31 03:11:55;;;;;;;13.40;6.38;;;8.60;99.90;;;-144.05;72.22;125687.94;4965719;28;20031;-86
2022/05/31 03:14:33;;;;;;;8.88;6.22;;;8.70;99.90;;;-144.05;71.94;125687.94;4958001;28;20037;-88
2022/05/31 03:17:26;;;;;;;11.57;6.20;;;8.70;99.90;;;-144.05;71.07;125687.94;4957658;28;20484;-87
2022/05/31 03:20:24;;;;;;;10.95;6.25;;;8.70;99.90;;;-144.05;70.00;125687.94;4985316;23;20413;-86
2022/05/31 03:23:01;;;;;;;8.30;4.60;;;8.80;99.90;;;-144.05;70.46;125687.94;4976326;28;20019;-88
2022/05/31 03:25:28;;;;;;;11.80;5.97;;;8.80;99.90;;;-144.05;70.71;125687.94;4977694;28;20034;-88
2022/05/31 03:28:01;;;;;;;7.05;5.18;;;8.80;99.90;;;-144.05;70.69;125687.94;4982565;28;20034;-87
2022/05/31 03:30:29;;;;;;;12.25;4.85;;;8.90;99.90;;;-144.05;71.23;125687.94;4984811;28;20102;-85
2022/05/31 03:32:58;;;;;;;11.02;5.55;;;8.80;99.90;;;-144.05;71.25;125687.94;5004127;28;20031;-85
2022/05/31 03:35:24;;;;;;;7.38;4.72;;;8.70;99.90;;;-144.05;71.42;125687.94;4991399;28;20027;-86
2022/05/31 03:37:50;;;;;;;8.48;5.15;;;8.80;99.90;;;-144.05;71.80;125687.94;4990600;28;20058;-86
2022/05/31 03:43:05;;;;;;;9.90;4.35;;;8.80;99.90;;;-144.05;72.48;125687.94;4975273;28;20497;-87
2022/05/31 03:45:41;;;;;;;6.20;4.28;;;8.80;99.90;;;-144.05;72.88;125687.94;4989999;28;20101;-85
2022/05/31 03:48:10;;;;;;;8.52;5.22;;;8.80;99.90;;;-144.05;73.37;125687.94;4990222;28;20447;-85
2022/05/31 03:50:41;;;;;;;8.52;4.80;;;8.80;99.90;;;-144.05;73.49;125687.94;4973759;28;20113;-86
2022/05/31 03:53:14;;;;;;;8.95;4.80;;;8.80;99.90;;;-144.05;73.53;125687.94;4989178;28;20042;-87
2022/05/31 03:55:46;;;;;;;14.57;5.85;;;8.80;99.90;;;-144.05;73.49;125687.94;4990117;28;20026;-87
2022/05/31 03:58:13;;;;;;;13.45;5.57;;;8.80;99.90;;;-144.05;73.15;125687.94;4990660;28;20112;-85
2022/05/31 04:00:39;;;;;;;7.93;4.75;;;8.90;99.90;;;-144.05;73.23;125687.94;4990985;28;20023;-85
2022/05/31 04:03:04;;;;;;;8.13;4.80;;;8.90;99.90;;;-144.05;73.02;125687.94;4990775;28;20353;-86
2022/05/31 04:05:30;;;;;;;12.63;5.15;;;9.00;99.90;;;-144.05;73.11;125687.94;4976264;28;20050;-85
2022/05/31 04:08:11;;;;;;;10.70;5.00;;;8.90;99.90;;;-144.05;73.25;125687.94;4991835;28;20062;-86
2022/05/31 04:10:42;;;;;;;7.32;4.20;;;9.00;99.90;;;-144.05;73.28;125687.94;4994872;28;20038;-87
2022/05/31 04:13:09;;;;;;;8.63;4.80;;;9.00;99.90;;;-144.05;73.42;125687.94;4979822;28;20030;-86
2022/05/31 04:15:36;;;;;;;11.07;5.35;;;9.00;99.90;;;-144.05;73.50;125687.94;4978836;28;20031;-88
2022/05/31 04:18:04;;;;;;;7.97;4.63;;;9.00;99.90;;;-144.05;73.54;125687.94;4980450;28;20478;-86
2022/05/31 04:20:32;;;;;;;8.38;5.70;;;9.00;99.90;;;-144.05;72.66;125687.94;4980336;28;20106;-87
2022/05/31 04:23:58;;;;;;;9.20;4.82;;;9.10;99.90;;;-144.05;71.55;125687.94;4989639;28;20039;-86
2022/05/31 04:25:45;;;;;;;8.30;5.50;;;9.10;99.90;;;-144.05;70.66;125687.94;4986757;28;20027;-86
2022/05/31 04:28:11;;;;;;;9.02;4.97;;;9.20;99.90;;;-144.05;69.97;125687.94;4979592;28;20442;-86
2022/05/31 04:30:42;;;;;;;6.55;4.55;;;9.20;99.90;;;-144.05;69.69;125687.94;4979950;28;20023;-87
2022/05/31 04:33:08;;;;;;;9.13;4.60;;;9.30;99.90;;;-144.05;69.27;125687.94;4977465;28;20031;-86
2022/05/31 04:35:34;;;;;;;11.55;4.93;;;9.40;99.90;;;-144.05;69.38;125687.94;4977220;28;20039;-86
2022/05/31 04:38:00;;;;;;;11.88;5.10;;;9.40;99.90;;;-144.05;69.23;125687.94;4993793;28;20418;-85
2022/05/31 04:40:26;;;;;;;7.78;4.60;;;9.40;99.90;;;-144.05;68.89;125687.94;4978552;28;20085;-85
2022/05/31 04:42:53;;;;;;;13.20;5.53;;;9.50;99.90;;;-144.05;67.45;125687.94;4976774;28;20031;-86
2022/05/31 04:45:19;;;;;;;11.88;5.57;;;9.50;99.90;;;-144.05;67.54;125687.94;4992750;28;20097;-87
2022/05/31 04:47:45;;;;;;;12.15;5.45;;;9.50;99.90;;;-144.05;67.22;125687.94;4977058;28;20034;-86
2022/05/31 04:50:12;;;;;;;7.40;4.90;;;9.50;99.90;;;-144.05;67.24;125687.94;4976222;28;20031;-87
2022/05/31 04:52:38;;;;;;;10.48;5.53;;;9.50;99.90;;;-144.05;66.85;125687.94;4978296;28;20037;-87
2022/05/31 04:55:05;;;;;;;9.63;5.05;;;9.50;99.90;;;-144.05;67.15;125687.94;4976396;28;20093;-87
2022/05/31 04:57:31;;;;;;;8.73;4.40;;;9.50;99.90;;;-144.05;67.04;125687.94;4976208;28;20129;-88
2022/05/31 04:59:57;;;;;;;9.75;5.20;;;9.60;99.90;;;-144.05;66.97;125687.94;4976988;28;20034;-87
2022/05/31 05:02:23;;;;;;;10.35;4.72;;;9.60;99.90;;;-144.05;67.06;125687.94;4976130;28;20035;-86
2022/05/31 05:04:48;;;;;;;8.30;4.85;;;9.60;99.90;;;-144.05;66.81;125687.94;4977776;28;20071;-87
2022/05/31 05:07:14;;;;;;;9.50;4.93;;;9.70;99.90;;;-144.05;66.91;125687.94;4978506;28;20034;-88
2022/05/31 05:09:40;;;;;;;8.88;4.90;;;9.70;99.90;;;-144.05;66.56;125687.94;4977186;28;20026;-85
2022/05/31 05:12:06;;;;;;;9.55;5.22;;;9.80;99.90;;;-144.05;66.21;125687.94;4977488;28;20031;-85
2022/05/31 05:14:32;;;;;;;13.82;6.88;;;9.80;99.90;;;-144.05;66.08;125687.94;4976447;28;20030;-86
2022/05/31 05:16:58;;;;;;;14.82;5.43;;;9.90;99.90;;;-144.05;65.92;125687.94;4976501;28;20394;-86
2022/05/31 05:19:25;;;;;;;10.25;6.38;;;9.90;99.90;;;-144.05;66.03;125687.94;4977644;28;20250;-85
2022/05/31 05:21:53;;;;;;;11.38;5.30;;;9.90;99.90;;;-144.05;65.70;125687.94;4977112;28;20489;-86
2022/05/31 05:24:18;;;;;;;12.15;5.90;;;9.90;99.90;;;-144.05;65.85;125687.94;4977143;28;20026;-84
2022/05/31 05:26:44;;;;;;;8.60;5.10;;;9.90;99.90;;;-144.05;65.90;125687.94;4976911;28;20034;-86
2022/05/31 05:31:57;;;;;;;8.95;5.30;;;10.00;99.90;;;-144.05;66.47;125687.94;4979228;28;20581;-88
2022/05/31 05:34:23;;;;;;;11.85;5.75;;;10.00;99.90;;;-144.05;66.59;125687.94;4976140;28;20030;-86
2022/05/31 05:36:49;;;;;;;10.80;5.90;;;10.00;99.90;;;-144.05;66.78;125687.94;4976263;28;20035;-86
2022/05/31 05:39:14;;;;;;;8.23;5.43;;;9.90;99.90;;;-144.05;66.71;125687.94;4976548;28;20512;-86
2022/05/31 05:41:41;;;;;;;10.15;6.65;;;9.90;99.90;;;-144.05;66.88;125687.94;4978223;28;20069;-86
2022/05/31 05:44:09;;;;;;;13.90;6.82;;;9.90;99.90;;;-144.05;66.85;125687.94;4976277;28;20034;-86
2022/05/31 05:46:35;;;;;;;11.15;5.38;;;9.90;99.90;;;-144.05;66.88;125687.94;4976346;28;20031;-87
2022/05/31 05:49:01;;;;;;;8.93;6.03;;;10.00;99.90;;;-144.05;66.92;125687.94;4976358;28;20474;-86
2022/05/31 05:51:33;;;;;;;11.88;5.60;;;10.00;99.90;;;-144.05;66.70;125687.94;4994213;28;20026;-86
2022/05/31 05:54:03;;;;;;;7.55;5.43;;;10.10;99.90;;;-144.05;66.06;125687.94;4979743;28;20114;-89
2022/05/31 05:56:30;;;;;;;7.53;5.22;;;10.20;99.90;;;-144.05;65.72;125687.94;4997150;28;20065;-84
2022/05/31 05:58:57;;;;;;;9.32;5.55;;;10.20;99.90;;;-144.05;65.27;125687.94;4977554;28;20034;-86
2022/05/31 06:01:51;;;;;;;6.82;4.90;;;10.30;99.90;;;-144.05;65.68;125687.94;4994275;28;20129;-86
2022/05/31 06:04:28;;;;;;;10.32;4.80;;;10.40;99.90;;;-144.05;65.66;125687.94;4979158;28;20487;-87
2022/05/31 06:07:05;;;;;;;8.55;4.65;;;10.40;99.90;;;-144.05;65.18;125687.94;4993201;28;20497;-87
2022/05/31 06:09:35;;;;;;;11.90;5.22;;;10.40;99.90;;;-144.05;65.01;125687.94;4994414;28;20176;-86
2022/05/31 06:12:19;;;;;;;11.65;5.50;;;10.40;99.90;;;-144.05;64.70;125687.94;4977489;28;20022;-86
2022/05/31 06:14:58;;;;;;;7.03;5.10;;;10.40;99.90;;;-144.05;64.16;125687.94;4977482;28;20062;-88
2022/05/31 06:17:37;;;;;;;7.70;5.07;;;10.40;99.90;;;-144.05;64.18;125687.94;4977325;28;20054;-87
2022/05/31 06:20:08;;;;;;;9.90;4.45;;;10.40;99.90;;;-144.05;64.48;125687.94;4977428;28;20231;-86
2022/05/31 06:22:39;;;;;;;10.32;5.68;;;10.40;99.90;;;-144.05;64.76;125687.94;4977360;28;20089;-87
2022/05/31 06:25:08;;;;;;;9.73;5.28;;;10.40;99.90;;;-144.05;65.17;125687.94;4977320;28;20035;-88
2022/05/31 06:27:34;;;;;;;12.80;6.60;;;10.40;99.90;;;-144.05;64.84;125687.94;4977703;28;20034;-86
2022/05/31 06:30:00;;;;;;;11.68;6.85;;;10.40;99.90;;;-144.05;64.81;125687.94;4977876;28;20022;-84
2022/05/31 06:32:25;;;;;;;13.93;6.47;;;10.40;99.90;;;-144.05;64.63;125687.94;4977527;28;20517;-86
2022/05/31 06:34:51;;;;;;;16.88;6.97;;;10.40;99.90;;;-144.05;64.76;125687.94;4989350;28;20031;-87
2022/05/31 06:37:17;;;;;;;15.65;8.15;;;10.50;99.90;;;-144.05;64.09;125687.94;4984256;28;20031;-86
2022/05/31 06:39:45;;;;;;;15.13;8.15;;;10.50;99.90;;;-144.05;63.69;125687.94;4977620;28;20031;-86
2022/05/31 06:42:12;;;;;;;16.40;7.28;;;10.50;99.90;;;-144.05;63.40;125687.94;4987193;28;20034;-88
2022/05/31 06:44:43;;;;;;;16.77;8.25;;;10.50;99.90;;;-144.05;63.26;125687.94;4990692;28;20450;-87
2022/05/31 06:47:10;;;;;;;18.33;8.13;;;10.60;99.90;;;-144.05;63.52;125687.94;4990114;28;20027;-86
2022/05/31 06:49:37;;;;;;;18.60;8.98;;;10.50;99.90;;;-144.05;63.57;125687.94;4976647;28;20114;-86
2022/05/31 06:57:52;;;;;;;19.52;8.35;;;10.90;99.90;;;-144.05;63.17;125687.94;4979131;28;20066;-86
2022/05/31 07:00:21;;;;;;;23.23;8.98;;;11.10;99.90;;;-144.05;62.20;125687.94;4978590;28;20073;-86
2022/05/31 07:02:49;;;;;;;16.08;8.85;;;11.20;99.90;;;-144.05;61.81;125687.94;4977963;28;20022;-84
2022/05/31 07:05:18;;;;;;;13.02;6.88;;;11.30;99.90;;;-144.05;61.20;125687.94;4976063;28;20098;-87
2022/05/31 07:07:45;;;;;;;17.73;8.07;;;11.40;99.90;;;-144.05;60.26;125687.94;4992236;28;20117;-87
2022/05/31 07:10:11;;;;;;;14.35;6.93;;;11.50;99.90;;;-144.05;60.76;125687.94;4976001;28;20026;-85
2022/05/31 07:12:40;;;;;;;14.50;7.28;;;11.50;99.90;;;-144.05;60.90;125687.94;4976648;28;20034;-86
2022/05/31 07:15:07;;;;;;;11.20;6.72;;;11.60;99.90;;;-144.05;59.67;125687.94;4975433;28;20185;-87
2022/05/31 07:17:33;;;;;;;9.48;5.70;;;11.60;99.90;;;-144.05;60.08;125687.94;4976713;28;20455;-86
2022/05/31 07:19:59;;;;;;;11.52;6.25;;;11.70;99.90;;;-144.05;59.76;125687.94;4976846;28;20050;-85
2022/05/31 07:22:25;;;;;;;13.20;6.50;;;11.70;99.90;;;-144.05;59.57;125687.94;4976138;28;20059;-85
2022/05/31 07:24:50;;;;;;;11.98;5.72;;;11.70;99.90;;;-144.05;59.13;125687.94;4976498;28;20031;-85
2022/05/31 07:27:16;;;;;;;13.73;5.70;;;11.80;99.90;;;-144.05;59.13;125687.94;4976908;28;20082;-86
2022/05/31 07:29:45;;;;;;;13.50;6.68;;;11.90;99.90;;;-144.05;58.60;125687.94;4976364;28;20043;-87
2022/05/31 07:32:11;;;;;;;11.85;6.35;;;12.00;99.90;;;-144.05;58.87;125687.94;4976563;28;20027;-87
2022/05/31 07:34:37;;;;;;;11.30;6.32;;;12.00;99.90;;;-144.05;59.10;125687.94;4977663;28;20031;-86
2022/05/31 07:37:03;;;;;;;8.18;5.05;;;12.00;99.90;;;-144.05;59.37;125687.94;4976263;28;20034;-86
2022/05/31 07:39:29;;;;;;;12.20;5.15;;;12.00;99.90;;;-144.05;59.19;125687.94;4977193;28;20030;-87
2022/05/31 07:41:56;;;;;;;6.78;4.57;;;12.00;99.90;;;-144.05;59.45;125687.94;4993027;28;20035;-87
2022/05/31 07:44:25;;;;;;;8.82;4.68;;;11.90;99.90;;;-144.05;59.84;125687.94;4978195;28;20027;-87
2022/05/31 07:46:51;;;;;;;8.70;5.18;;;11.80;99.90;;;-144.05;60.45;125687.94;4980880;28;20097;-88
2022/05/31 07:49:17;;;;;;;10.00;5.68;;;11.80;99.90;;;-144.05;60.97;125687.94;4981033;28;20076;-84
2022/05/31 07:51:43;;;;;;;8.02;4.70;;;11.80;99.90;;;-144.05;61.22;125687.94;4982138;28;20035;-87
2022/05/31 07:54:09;;;;;;;10.38;5.07;;;11.80;99.90;;;-144.05;60.94;125687.94;4982287;28;20031;-88
2022/05/31 07:56:35;;;;;;;8.55;5.00;;;11.70;99.90;;;-144.05;61.45;125687.94;4981809;28;20397;-86
2022/05/31 07:59:01;;;;;;;8.93;5.10;;;11.60;99.90;;;-144.05;63.06;125687.94;4982467;28;20031;-87
2022/05/31 08:01:27;;;;;;;7.90;4.90;;;11.60;99.90;;;-144.05;63.04;125687.94;4983322;28;20030;-88
2022/05/31 08:03:55;;;;;;;10.80;4.75;;;11.60;99.90;;;-144.05;63.31;125687.94;4996771;28;20066;-86
2022/05/31 08:06:29;;;;;;;8.43;5.10;;;11.60;99.90;;;-144.05;62.99;125687.94;4981531;28;20030;-86
2022/05/31 08:08:57;;;;;;;8.65;5.13;;;11.70;99.90;;;-144.05;61.85;125687.94;4981513;28;20031;-88
2022/05/31 08:11:31;;;;;;;8.43;4.50;;;11.70;99.90;;;-144.05;62.05;125687.94;4997577;28;20491;-86
2022/05/31 08:13:57;;;;;;;9.98;4.82;;;11.70;99.90;;;-144.05;61.81;125687.94;4996739;28;20041;-87
2022/05/31 08:16:28;;;;;;;8.70;4.72;;;11.80;99.90;;;-144.05;62.26;125687.94;4980513;28;20066;-85
2022/05/31 08:18:56;;;;;;;5.97;4.30;;;11.80;99.90;;;-144.05;62.80;125687.94;4982838;28;20030;-89
2022/05/31 08:21:29;;;;;;;9.20;4.93;;;11.80;99.90;;;-144.05;62.99;125687.94;4992015;28;20041;-88
2022/05/31 08:24:04;;;;;;;13.13;5.47;;;11.80;99.90;;;-144.05;63.08;125687.94;4991922;28;20031;-88
2022/05/31 08:26:35;;;;;;;14.38;5.70;;;11.70;99.90;;;-144.05;62.99;125687.94;4981045;28;20033;-88
2022/05/31 08:29:01;;;;;;;13.07;6.10;;;11.70;99.90;;;-144.05;63.10;125687.94;4979883;28;20027;-88
2022/05/31 08:31:34;;;;;;;11.65;5.22;;;11.50;99.90;;;-144.05;63.17;125687.94;4979835;28;20030;-88
2022/05/31 08:34:00;;;;;;;11.25;5.63;;;11.40;99.90;;;-144.05;63.35;125687.94;4979411;28;20483;-88
2022/05/31 08:36:26;;;;;;;10.57;5.38;;;11.40;99.90;;;-144.05;63.30;125687.94;4995655;28;20085;-87
2022/05/31 08:38:53;;;;;;;9.27;5.20;;;11.30;99.90;;;-144.05;63.57;125687.94;4979260;28;20031;-87
2022/05/31 08:41:30;;;;;;;11.60;4.93;;;11.30;99.90;;;-144.05;64.28;125687.94;4980153;28;20030;-86
2022/05/31 08:44:18;;;;;;;11.60;5.00;;;11.30;99.90;;;-144.05;64.23;125687.94;4980128;28;20053;-84
2022/05/31 08:47:38;;;;;;;9.43;5.03;;;11.40;99.90;;;-144.05;64.63;125687.94;5008907;28;20046;-87
2022/05/31 08:53:35;;;;;;;11.25;5.20;;;11.80;99.90;;;-144.05;63.21;125687.94;4979827;28;20038;-87
2022/05/31 08:59:51;;;;;;;7.22;4.28;;;12.10;99.90;;;-144.05;61.96;125687.94;4979472;28;20093;-88
2022/05/31 09:02:43;;;;;;;6.80;4.22;;;12.40;99.90;;;-144.05;60.38;125687.94;4977697;28;20022;-87
2022/05/31 09:05:22;;;;;;;7.13;3.95;;;12.70;99.90;;;-144.05;58.57;125687.94;4978440;28;20105;-85
2022/05/31 09:08:02;;;;;;;5.13;3.92;;;12.90;99.90;;;-144.05;58.06;125687.94;4994894;28;20027;-87
2022/05/31 09:11:06;;;;;;;7.13;3.70;;;13.40;99.90;;;-144.05;54.94;125687.94;4979707;28;20022;-85
2022/05/31 09:13:53;;;;;;;8.15;3.63;;;13.90;99.90;;;-144.05;54.69;125687.94;4979478;28;20122;-85
2022/05/31 09:17:00;;;;;;;13.43;5.63;;;14.30;99.90;;;-144.05;53.18;125687.94;4979958;28;20051;-86
2022/05/31 09:20:00;;;;;;;9.77;3.70;;;14.70;99.90;;;-144.05;50.72;125687.94;4978528;28;20163;-87
2022/05/31 09:22:27;;;;;;;6.28;3.10;;;14.80;99.90;;;-144.05;51.87;125687.94;5027197;22;20118;-87
2022/05/31 09:24:54;;;;;;;5.70;3.13;;;14.70;99.90;;;-144.05;51.34;125687.94;5007227;28;20030;-87
2022/05/31 09:27:43;;;;;;;5.80;2.67;;;14.60;99.90;;;-144.05;51.69;125687.94;5004402;28;20557;-88
2022/05/31 09:30:51;;;;;;;4.68;3.33;;;14.50;99.90;;;-144.05;51.32;125687.94;5000314;28;20026;-87
2022/05/31 09:33:50;;;;;;;5.18;3.00;;;14.40;99.90;;;-144.05;51.35;125687.94;4972300;28;20066;-87
2022/05/31 09:36:41;;;;;;;5.75;2.80;;;14.40;99.90;;;-144.05;51.16;125687.94;4993710;28;20026;-88
2022/05/31 09:39:30;;;;;;;11.02;4.28;;;14.20;99.90;;;-144.05;51.25;125687.94;4993776;28;20031;-87
2022/05/31 09:42:23;;;;;;;5.07;3.30;;;13.90;99.90;;;-144.05;52.75;125687.94;4977328;28;20038;-87
2022/05/31 09:45:16;;;;;;;7.47;3.55;;;13.70;99.90;;;-144.05;54.01;125687.94;4977371;28;20035;-85
2022/05/31 09:47:42;;;;;;;9.38;4.30;;;13.50;99.90;;;-144.05;55.46;125687.94;4994300;28;20475;-87
2022/05/31 09:50:09;;;;;;;8.80;3.85;;;13.40;99.90;;;-144.05;55.70;125687.94;4994054;28;20122;-89
2022/05/31 09:52:50;;;;;;;8.13;4.43;;;13.20;99.90;;;-144.05;56.76;125687.94;4977101;28;20422;-89
2022/05/31 09:58:10;;;;;;;10.25;4.32;;;13.10;99.90;;;-144.05;56.72;125687.94;4977764;28;20097;-89
2022/05/31 10:00:58;;;;;;;8.63;4.95;;;13.10;99.90;;;-144.05;57.65;125687.94;4976073;28;20030;-87
2022/05/31 10:03:54;;;;;;;13.00;5.57;;;13.30;99.90;;;-144.05;60.18;125687.94;4978425;28;20376;-88
2022/05/31 10:06:28;;;;;;;12.38;6.03;;;13.50;99.90;;;-144.05;59.77;125687.94;4976823;28;20027;-86
2022/05/31 10:09:13;;;;;;;10.18;5.20;;;13.60;99.90;;;-144.05;59.25;125687.94;4976104;28;20042;-88
2022/05/31 10:11:44;;;;;;;8.65;4.55;;;13.70;99.90;;;-144.05;58.24;125687.94;4994337;28;20030;-88
2022/05/31 10:14:30;;;;;;;9.73;5.32;;;13.70;99.90;;;-144.05;58.60;125687.94;4977607;28;20026;-88
2022/05/31 10:17:13;;;;;;;9.88;5.00;;;13.60;99.90;;;-144.05;58.54;125687.94;4975734;28;20045;-88
2022/05/31 10:19:46;;;;;;;10.02;4.85;;;13.80;99.90;;;-144.05;57.29;125687.94;4976416;28;20047;-89
2022/05/31 10:22:20;;;;;;;6.40;4.07;;;14.10;99.90;;;-144.05;55.13;125687.94;4976613;28;20073;-88
2022/05/31 10:24:46;;;;;;;7.10;4.07;;;14.20;99.90;;;-144.05;52.17;125687.94;4976180;28;20101;-87
2022/05/31 10:27:27;;;;;;;7.30;4.38;;;14.30;99.90;;;-144.05;53.33;125687.94;4976083;28;20075;-88
2022/05/31 10:29:59;;;;;;;7.13;3.95;;;14.30;99.90;;;-144.05;53.24;125687.94;4976190;28;20023;-86
2022/05/31 10:32:49;;;;;;;7.93;4.50;;;14.50;99.90;;;-144.05;52.91;125687.94;4975587;28;20038;-87
2022/05/31 10:35:30;;;;;;;5.82;3.92;;;14.70;99.90;;;-144.05;51.25;125687.94;4974550;28;20054;-88
2022/05/31 10:38:09;;;;;;;7.35;4.05;;;14.80;99.90;;;-144.05;51.54;125687.94;4975074;28;20391;-86
2022/05/31 10:41:01;;;;;;;8.02;3.88;;;14.80;99.90;;;-144.05;52.24;125687.94;4974720;28;20485;-87
2022/05/31 10:43:46;;;;;;;7.50;3.90;;;14.70;99.90;;;-144.05;52.76;125687.94;4974947;28;20158;-85
2022/05/31 10:46:32;;;;;;;12.23;4.68;;;14.70;99.90;;;-144.05;52.60;125687.94;4975963;28;20479;-87